createdAt,value
2018-05-10T00:00:42.831Z,29.33
2018-05-10T00:03:10.322Z,28.20
2018-05-10T00:05:37.790Z,28.17
2018-05-10T00:08:05.284Z,28.50
2018-05-10T00:10:32.769Z,31.13
2018-05-10T00:13:00.270Z,34.27
2018-05-10T00:15:27.817Z,36.50
2018-05-10T00:17:55.304Z,35.83
2018-05-10T00:20:22.773Z,39.97
2018-05-10T00:22:50.260Z,36.03
2018-05-10T00:25:17.738Z,37.20
2018-05-10T00:27:45.225Z,39.13
2018-05-10T00:30:12.703Z,35.20
2018-05-10T00:32:40.205Z,38.10
2018-05-10T00:35:07.684Z,36.30
2018-05-10T00:37:35.173Z,36.90
2018-05-10T00:40:02.655Z,35.97
2018-05-10T00:42:30.142Z,35.33
2018-05-10T00:44:57.616Z,35.77
2018-05-10T00:47:25.111Z,34.00
2018-05-10T00:49:52.581Z,35.90
2018-05-10T00:52:20.071Z,37.23
2018-05-10T00:54:54.362Z,35.77
2018-05-10T00:57:21.853Z,37.60
2018-05-10T00:59:49.322Z,32.57
2018-05-10T01:02:16.822Z,33.50
2018-05-10T01:04:44.303Z,34.60
2018-05-10T01:07:11.797Z,34.93
2018-05-10T01:09:39.262Z,34.40
2018-05-10T01:12:06.749Z,35.07
2018-05-10T01:14:34.212Z,36.23
2018-05-10T01:17:01.718Z,35.83
2018-05-10T01:19:29.185Z,36.00
2018-05-10T01:21:56.655Z,37.57
2018-05-10T01:24:24.152Z,34.47
2018-05-10T01:26:51.622Z,36.20
2018-05-10T01:29:19.119Z,36.30
2018-05-10T01:31:46.587Z,39.70
2018-05-10T01:34:14.073Z,37.60
2018-05-10T01:36:41.551Z,35.77
2018-05-10T01:39:09.055Z,37.27
2018-05-10T01:41:36.530Z,37.33
2018-05-10T01:44:04.019Z,36.07
2018-05-10T01:46:31.497Z,38.17
2018-05-10T01:48:58.993Z,38.07
2018-05-10T01:51:26.465Z,36.87
2018-05-10T01:53:53.950Z,35.93
2018-05-10T01:56:21.418Z,37.83
2018-05-10T01:58:48.902Z,39.00
2018-05-10T02:01:16.409Z,37.70
2018-05-10T02:03:43.907Z,39.17
2018-05-10T02:06:11.374Z,40.80
2018-05-10T02:08:38.857Z,40.37
2018-05-10T02:11:06.320Z,42.40
2018-05-10T02:13:33.806Z,40.70
2018-05-10T02:16:01.274Z,42.07
2018-05-10T02:18:28.777Z,42.43
2018-05-10T02:20:56.252Z,41.23
2018-05-10T02:23:23.749Z,43.97
2018-05-10T02:25:51.218Z,43.60
2018-05-10T02:28:18.706Z,40.47
2018-05-10T02:30:46.183Z,40.93
2018-05-10T02:33:13.678Z,41.33
2018-05-10T02:35:41.155Z,44.23
2018-05-10T02:38:08.637Z,40.77
2018-05-10T02:40:36.154Z,42.30
2018-05-10T02:43:03.654Z,44.60
2018-05-10T02:45:31.144Z,40.63
2018-05-10T02:47:58.610Z,43.20
2018-05-10T02:50:26.111Z,34.87
2018-05-10T02:52:53.591Z,36.17
2018-05-10T02:55:21.081Z,33.37
2018-05-10T02:57:48.556Z,32.50
2018-05-10T03:00:16.043Z,31.00
2018-05-10T03:02:43.510Z,29.97
2018-05-10T03:05:11.227Z,31.33
2018-05-10T03:07:38.702Z,32.17
2018-05-10T03:10:06.194Z,33.30
2018-05-10T03:12:33.659Z,32.37
2018-05-10T03:15:01.147Z,33.83
2018-05-10T03:17:28.848Z,34.60
2018-05-10T03:19:56.336Z,30.43
2018-05-10T03:22:23.806Z,33.22
2018-05-10T03:24:51.293Z,26.77
2018-05-10T03:27:18.811Z,31.23
2018-05-10T03:29:46.300Z,33.73
2018-05-10T03:32:13.761Z,35.43
2018-05-10T03:34:41.253Z,38.03
2018-05-10T03:37:08.728Z,39.97
2018-05-10T03:39:36.214Z,44.17
2018-05-10T03:42:03.710Z,42.80
2018-05-10T03:44:31.205Z,46.70
2018-05-10T03:46:58.667Z,45.70
2018-05-10T03:49:26.167Z,44.90
2018-05-10T03:51:53.637Z,46.43
2018-05-10T03:54:21.122Z,42.10
2018-05-10T03:56:48.585Z,41.67
2018-05-10T03:59:16.079Z,42.00
2018-05-10T04:01:43.545Z,42.80
2018-05-10T04:04:26.629Z,40.73
2018-05-10T04:07:05.878Z,37.97
2018-05-10T04:12:34.070Z,32.50
2018-05-10T04:15:01.578Z,34.30
2018-05-10T04:17:29.055Z,31.30
2018-05-10T04:19:56.555Z,29.37
2018-05-10T04:22:24.023Z,28.60
2018-05-10T04:24:51.488Z,27.67
2018-05-10T04:27:19.010Z,27.40
2018-05-10T04:29:46.473Z,26.07
2018-05-10T04:32:13.962Z,26.13
2018-05-10T04:34:41.430Z,26.03
2018-05-10T04:37:08.918Z,28.90
2018-05-10T04:39:36.373Z,28.97
2018-05-10T04:42:03.867Z,27.67
2018-05-10T04:44:31.335Z,25.53
2018-05-10T04:46:58.894Z,29.30
2018-05-10T04:49:26.341Z,27.87
2018-05-10T04:51:53.823Z,31.87
2018-05-10T04:54:21.282Z,31.67
2018-05-10T04:56:48.770Z,33.20
2018-05-10T04:59:16.237Z,31.20
2018-05-10T05:01:43.713Z,32.03
2018-05-10T05:04:11.183Z,30.50
2018-05-10T05:06:39.590Z,30.97
2018-05-10T05:09:07.119Z,36.70
2018-05-10T05:11:34.545Z,38.27
2018-05-10T05:14:02.018Z,37.93
2018-05-10T05:16:29.513Z,37.90
2018-05-10T05:18:56.984Z,37.30
2018-05-10T05:21:24.469Z,36.57
2018-05-10T05:23:51.957Z,33.93
2018-05-10T05:26:19.422Z,36.47
2018-05-10T05:28:46.913Z,33.53
2018-05-10T05:31:14.387Z,33.30
2018-05-10T05:33:41.885Z,37.17
2018-05-10T05:36:09.351Z,40.67
2018-05-10T05:38:36.833Z,37.47
2018-05-10T05:41:04.383Z,38.93
2018-05-10T05:43:31.908Z,36.20
2018-05-10T05:45:59.278Z,34.90
2018-05-10T05:48:26.763Z,36.17
2018-05-10T05:50:54.235Z,35.90
2018-05-10T05:53:21.735Z,33.17
2018-05-10T05:55:49.198Z,32.77
2018-05-10T05:58:16.688Z,32.70
2018-05-10T06:00:44.163Z,30.40
2018-05-10T06:03:11.662Z,33.27
2018-05-10T06:05:39.125Z,32.07
2018-05-10T06:08:06.618Z,33.97
2018-05-10T06:10:34.094Z,35.40
2018-05-10T06:13:01.590Z,33.07
2018-05-10T06:15:29.100Z,33.77
2018-05-10T06:17:56.575Z,30.90
2018-05-10T06:20:24.038Z,34.07
2018-05-10T06:22:51.522Z,33.57
2018-05-10T06:25:18.981Z,34.53
2018-05-10T06:27:46.469Z,31.33
2018-05-10T06:30:14.327Z,32.20
2018-05-10T06:32:41.822Z,38.17
2018-05-10T06:35:09.388Z,35.60
2018-05-10T06:37:36.883Z,30.53
2018-05-10T06:40:04.370Z,31.47
2018-05-10T06:42:31.873Z,34.67
2018-05-10T06:44:59.337Z,32.67
2018-05-10T06:47:26.806Z,39.37
2018-05-10T06:49:54.285Z,35.60
2018-05-10T06:52:21.745Z,37.23
2018-05-10T06:54:49.227Z,31.13
2018-05-10T06:57:16.716Z,32.87
2018-05-10T06:59:44.276Z,31.97
2018-05-10T07:02:11.777Z,29.40
2018-05-10T07:04:39.312Z,32.50
2018-05-10T07:07:06.839Z,31.33
2018-05-10T07:09:34.511Z,30.83
2018-05-10T07:12:01.857Z,28.87
2018-05-10T07:14:29.396Z,33.60
2018-05-10T07:16:56.890Z,33.07
2018-05-10T07:19:24.466Z,32.97
2018-05-10T07:21:51.998Z,33.33
2018-05-10T07:24:19.560Z,32.63
2018-05-10T07:26:47.058Z,34.57
2018-05-10T07:29:14.615Z,31.53
2018-05-10T07:31:42.102Z,31.87
2018-05-10T07:34:09.604Z,37.73
2018-05-10T07:36:37.086Z,28.73
2018-05-10T07:39:04.566Z,32.03
2018-05-10T07:41:32.039Z,32.20
2018-05-10T07:43:59.535Z,33.53
2018-05-10T07:46:27.002Z,30.90
2018-05-10T07:48:54.482Z,29.10
2018-05-10T07:51:21.953Z,30.57
2018-05-10T07:53:49.443Z,33.17
2018-05-10T07:56:17.178Z,30.47
2018-05-10T07:58:44.730Z,33.03
2018-05-10T08:01:12.242Z,29.83
2018-05-10T08:03:39.754Z,31.87
2018-05-10T08:06:07.261Z,31.70
2018-05-10T08:08:34.778Z,33.20
2018-05-10T08:11:02.301Z,30.77
2018-05-10T08:13:29.806Z,30.10
2018-05-10T08:15:57.289Z,35.60
2018-05-10T08:18:24.754Z,30.37
2018-05-10T08:20:52.254Z,33.37
2018-05-10T08:23:19.726Z,35.10
2018-05-10T08:25:47.209Z,31.60
2018-05-10T08:28:14.685Z,30.97
2018-05-10T08:30:42.182Z,25.47
2018-05-10T08:33:09.647Z,24.53
2018-05-10T08:35:37.145Z,24.77
2018-05-10T08:38:04.627Z,25.67
2018-05-10T08:40:32.114Z,29.57
2018-05-10T08:42:59.577Z,28.53
2018-05-10T08:45:27.060Z,22.67
2018-05-10T08:47:54.531Z,22.70
2018-05-10T08:50:22.012Z,18.97
2018-05-10T08:52:49.473Z,17.77
2018-05-10T08:55:16.994Z,16.50
2018-05-10T08:57:44.465Z,12.73
2018-05-10T09:00:11.970Z,14.10
2018-05-10T09:02:39.432Z,14.90
2018-05-10T09:05:06.914Z,18.03
2018-05-10T09:07:34.381Z,13.77
2018-05-10T09:10:02.055Z,16.97
2018-05-10T09:12:29.358Z,15.00
2018-05-10T09:14:56.850Z,13.67
2018-05-10T09:17:24.314Z,16.03
2018-05-10T09:19:51.798Z,17.00
2018-05-10T09:22:19.258Z,13.70
2018-05-10T09:24:46.739Z,12.63
2018-05-10T09:27:14.199Z,12.73
2018-05-10T09:29:41.682Z,12.80
2018-05-10T09:32:09.133Z,8.80
2018-05-10T09:34:36.599Z,11.30
2018-05-10T09:37:04.096Z,10.17
2018-05-10T09:39:31.578Z,8.73
2018-05-10T09:41:59.066Z,9.67
2018-05-10T09:44:26.545Z,5.80
2018-05-10T09:46:54.032Z,11.80
2018-05-10T09:49:21.502Z,7.30
2018-05-10T09:51:48.986Z,9.50
2018-05-10T09:54:16.446Z,7.30
2018-05-10T09:56:43.926Z,6.00
2018-05-10T09:59:11.382Z,5.13
2018-05-10T10:01:38.865Z,6.60
2018-05-10T10:04:06.324Z,8.67
2018-05-10T10:06:33.790Z,7.53
2018-05-10T10:09:01.250Z,7.63
2018-05-10T10:11:28.744Z,13.30
2018-05-10T10:13:56.201Z,9.00
2018-05-10T10:16:23.679Z,9.30
2018-05-10T10:18:51.139Z,7.67
2018-05-10T10:21:18.627Z,6.00
2018-05-10T10:23:46.082Z,8.53
2018-05-10T10:26:13.575Z,6.03
2018-05-10T10:28:41.038Z,8.03
2018-05-10T10:31:08.515Z,6.10
2018-05-10T10:33:35.973Z,7.30
2018-05-10T10:36:03.454Z,5.40
2018-05-10T10:38:30.910Z,8.27
2018-05-10T10:40:58.394Z,9.27
2018-05-10T10:43:25.850Z,5.97
2018-05-10T10:45:53.326Z,8.80
2018-05-10T10:48:20.789Z,9.00
2018-05-10T10:50:48.266Z,9.10
2018-05-10T10:53:15.770Z,10.40
2018-05-10T10:55:43.258Z,10.83
2018-05-10T10:58:10.715Z,8.57
2018-05-10T11:00:38.179Z,9.17
2018-05-10T11:03:05.649Z,9.70
2018-05-10T11:05:33.133Z,12.17
2018-05-10T11:08:00.610Z,11.37
2018-05-10T11:10:28.074Z,12.17
2018-05-10T11:12:55.557Z,14.37
2018-05-10T11:15:23.108Z,11.70
2018-05-10T11:17:50.586Z,12.93
2018-05-10T11:20:18.052Z,16.97
2018-05-10T11:22:45.535Z,16.63
2018-05-10T11:25:13.034Z,11.50
2018-05-10T11:27:40.525Z,14.53
2018-05-10T11:30:07.982Z,18.83
2018-05-10T11:32:35.473Z,18.53
2018-05-10T11:35:02.933Z,18.93
2018-05-10T11:37:30.422Z,16.87
2018-05-10T11:39:57.890Z,16.07
2018-05-10T11:42:25.374Z,15.37
2018-05-10T11:44:52.837Z,17.83
2018-05-10T11:47:20.317Z,15.33
2018-05-10T11:49:47.786Z,17.23
2018-05-10T11:52:15.271Z,18.27
2018-05-10T11:54:42.745Z,15.10
2018-05-10T11:57:10.730Z,20.23
2018-05-10T11:59:38.190Z,19.27
2018-05-10T12:02:05.674Z,15.63
2018-05-10T12:04:33.152Z,14.73
2018-05-10T12:07:00.647Z,15.17
2018-05-10T12:09:28.115Z,18.13
2018-05-10T12:11:55.593Z,18.20
2018-05-10T12:14:23.053Z,16.87
2018-05-10T12:16:50.541Z,17.63
2018-05-10T12:19:18.075Z,16.07
2018-05-10T12:21:45.512Z,16.90
2018-05-10T12:24:12.974Z,14.80
2018-05-10T12:26:40.437Z,16.63
2018-05-10T12:29:07.927Z,15.73
2018-05-10T12:31:35.390Z,18.80
2018-05-10T12:34:02.874Z,16.00
2018-05-10T12:36:30.350Z,18.73
2018-05-10T12:38:57.829Z,15.13
2018-05-10T12:41:25.289Z,15.27
2018-05-10T12:43:52.774Z,17.63
2018-05-10T12:46:20.233Z,23.37
2018-05-10T12:48:47.769Z,15.40
2018-05-10T12:51:15.433Z,17.87
2018-05-10T12:53:42.926Z,18.07
2018-05-10T12:56:10.469Z,19.87
2018-05-10T12:58:37.890Z,19.23
2018-05-10T13:01:05.353Z,20.37
2018-05-10T13:03:32.894Z,20.63
2018-05-10T13:06:00.368Z,18.20
2018-05-10T13:08:27.913Z,22.37
2018-05-10T13:10:55.391Z,21.27
2018-05-10T13:13:23.940Z,18.80
2018-05-10T13:15:51.373Z,19.10
2018-05-10T13:18:18.919Z,21.47
2018-05-10T13:20:46.386Z,16.67
2018-05-10T13:23:13.875Z,20.00
2018-05-10T13:25:41.341Z,15.27
2018-05-10T13:28:08.821Z,17.43
2018-05-10T13:30:36.277Z,19.37
2018-05-10T13:33:03.766Z,16.70
2018-05-10T13:35:31.238Z,17.27
2018-05-10T13:37:58.727Z,20.37
2018-05-10T13:40:26.194Z,18.33
2018-05-10T13:42:53.662Z,18.53
2018-05-10T13:45:21.142Z,19.17
2018-05-10T13:47:48.606Z,16.37
2018-05-10T13:50:16.089Z,18.07
2018-05-10T13:52:43.572Z,14.70
2018-05-10T13:55:11.055Z,18.57
2018-05-10T13:57:38.527Z,17.53
2018-05-10T14:00:06.010Z,17.80
2018-05-10T14:02:33.482Z,16.03
2018-05-10T14:05:00.974Z,18.17
2018-05-10T14:07:28.446Z,20.03
2018-05-10T14:09:55.927Z,17.83
2018-05-10T14:12:23.393Z,19.77
2018-05-10T14:14:50.878Z,18.10
2018-05-10T14:17:18.351Z,19.70
2018-05-10T14:19:45.838Z,16.37
2018-05-10T14:22:13.307Z,14.23
2018-05-10T14:24:40.793Z,16.80
2018-05-10T14:27:08.262Z,16.93
2018-05-10T14:29:35.751Z,17.80
2018-05-10T14:32:03.223Z,19.17
2018-05-10T14:34:30.702Z,16.53
2018-05-10T14:36:58.162Z,18.73
2018-05-10T14:39:25.729Z,15.80
2018-05-10T14:41:53.124Z,14.73
2018-05-10T14:44:20.614Z,14.77
2018-05-10T14:46:48.090Z,14.47
2018-05-10T14:49:15.584Z,15.53
2018-05-10T14:51:43.045Z,15.20
2018-05-10T14:54:10.572Z,14.77
2018-05-10T14:56:38.018Z,14.50
2018-05-10T14:59:05.502Z,16.50
2018-05-10T15:01:32.977Z,13.57
2018-05-10T15:04:00.461Z,14.13
2018-05-10T15:06:28.322Z,14.17
2018-05-10T15:08:55.777Z,14.87
2018-05-10T15:11:23.261Z,13.27
2018-05-10T15:13:50.737Z,11.00
2018-05-10T15:16:18.214Z,10.13
2018-05-10T15:18:45.678Z,9.40
2018-05-10T15:21:13.165Z,9.17
2018-05-10T15:23:40.685Z,10.33
2018-05-10T15:26:08.129Z,9.90
2018-05-10T15:28:35.590Z,8.97
2018-05-10T15:31:03.074Z,10.20
2018-05-10T15:33:30.534Z,7.60
2018-05-10T15:35:58.022Z,11.57
2018-05-10T15:38:25.495Z,9.13
2018-05-10T15:40:52.985Z,9.73
2018-05-10T15:43:20.453Z,8.90
2018-05-10T15:45:47.938Z,10.07
2018-05-10T15:48:15.404Z,16.17
2018-05-10T15:50:42.891Z,13.17
2018-05-10T15:53:10.353Z,10.27
2018-05-10T15:55:37.838Z,7.93
2018-05-10T15:58:05.301Z,10.50
2018-05-10T16:00:32.778Z,12.03
2018-05-10T16:03:00.249Z,11.40
2018-05-10T16:05:27.734Z,11.67
2018-05-10T16:07:55.212Z,10.47
2018-05-10T16:10:22.697Z,12.07
2018-05-10T16:12:50.172Z,13.13
2018-05-10T16:15:17.662Z,12.30
2018-05-10T16:17:45.125Z,11.17
2018-05-10T16:20:12.606Z,11.37
2018-05-10T16:22:40.106Z,15.27
2018-05-10T16:25:07.596Z,8.40
2018-05-10T16:27:35.067Z,9.07
2018-05-10T16:30:02.570Z,10.63
2018-05-10T16:32:30.964Z,14.03
2018-05-10T16:34:58.435Z,10.87
2018-05-10T16:37:25.966Z,11.53
2018-05-10T16:39:53.426Z,11.10
2018-05-10T16:42:20.914Z,11.97
2018-05-10T16:44:48.374Z,13.00
2018-05-10T16:47:15.858Z,11.43
2018-05-10T16:49:43.327Z,8.90
2018-05-10T16:52:10.810Z,9.30
2018-05-10T16:54:38.276Z,9.33
2018-05-10T16:57:05.770Z,12.23
2018-05-10T16:59:33.238Z,9.43
2018-05-10T17:02:00.732Z,12.93
2018-05-10T17:04:28.198Z,10.73
2018-05-10T17:06:55.685Z,10.37
2018-05-10T17:09:23.159Z,8.30
2018-05-10T17:11:50.641Z,12.67
2018-05-10T17:14:18.109Z,10.40
2018-05-10T17:16:46.082Z,9.67
2018-05-10T17:19:13.553Z,10.37
2018-05-10T17:21:41.103Z,9.47
2018-05-10T17:24:08.562Z,9.27
2018-05-10T17:26:36.047Z,9.90
2018-05-10T17:29:03.497Z,9.33
2018-05-10T17:31:30.989Z,6.97
2018-05-10T17:33:58.454Z,8.97
2018-05-10T17:36:25.942Z,9.70
2018-05-10T17:38:53.404Z,8.50
2018-05-10T17:41:20.885Z,9.13
2018-05-10T17:43:48.356Z,8.93
2018-05-10T17:46:15.941Z,8.53
2018-05-10T17:48:43.427Z,11.50
2018-05-10T17:51:10.913Z,11.47
2018-05-10T17:53:38.387Z,12.80
2018-05-10T17:56:05.882Z,9.10
2018-05-10T17:58:33.349Z,9.23
2018-05-10T18:01:00.811Z,8.67
2018-05-10T18:03:28.306Z,9.73
2018-05-10T18:05:55.782Z,12.07
2018-05-10T18:08:23.261Z,9.97
2018-05-10T18:10:50.726Z,8.47
2018-05-10T18:13:18.238Z,10.57
2018-05-10T18:15:45.708Z,9.97
2018-05-10T18:18:13.198Z,9.83
2018-05-10T18:20:40.661Z,7.93
2018-05-10T18:23:08.146Z,8.63
2018-05-10T18:25:35.613Z,9.83
2018-05-10T18:28:03.110Z,8.50
2018-05-10T18:30:30.574Z,10.50
2018-05-10T18:32:58.038Z,9.47
2018-05-10T18:35:25.539Z,11.07
2018-05-10T18:37:53.001Z,8.70
2018-05-10T18:40:20.495Z,10.93
2018-05-10T18:42:47.972Z,10.97
2018-05-10T18:45:15.466Z,11.30
2018-05-10T18:47:42.930Z,8.97
2018-05-10T18:50:10.417Z,11.37
2018-05-10T18:52:37.875Z,9.77
2018-05-10T18:55:05.400Z,12.63
2018-05-10T18:57:32.868Z,9.13
2018-05-10T19:00:00.365Z,10.13
2018-05-10T19:02:27.833Z,11.53
2018-05-10T19:04:55.321Z,8.63
2018-05-10T19:07:22.848Z,8.97
2018-05-10T19:09:50.285Z,10.87
2018-05-10T19:12:17.794Z,11.70
2018-05-10T19:14:45.290Z,10.17
2018-05-10T19:17:12.742Z,8.63
2018-05-10T19:19:40.249Z,8.33
2018-05-10T19:22:07.707Z,9.33
2018-05-10T19:24:35.198Z,11.17
2018-05-10T19:27:02.675Z,11.83
2018-05-10T19:29:30.252Z,16.37
2018-05-10T19:31:57.710Z,8.83
2018-05-10T19:34:25.190Z,7.77
2018-05-10T19:36:52.662Z,10.90
2018-05-10T19:39:20.119Z,10.47
2018-05-10T19:41:47.603Z,9.33
2018-05-10T19:44:15.065Z,14.37
2018-05-10T19:46:42.571Z,11.30
2018-05-10T19:49:10.040Z,10.87
2018-05-10T19:51:37.525Z,9.17
2018-05-10T19:54:04.994Z,13.73
2018-05-10T19:56:32.483Z,11.40
2018-05-10T19:58:59.953Z,8.50
2018-05-10T20:01:27.443Z,11.97
2018-05-10T20:03:54.914Z,10.17
2018-05-10T20:06:22.398Z,9.10
2018-05-10T20:08:49.862Z,11.37
2018-05-10T20:11:17.346Z,12.00
2018-05-10T20:13:44.856Z,11.63
2018-05-10T20:16:12.310Z,11.10
2018-05-10T20:18:39.771Z,7.77
2018-05-10T20:21:07.262Z,7.93
2018-05-10T20:23:34.735Z,9.53
2018-05-10T20:26:02.216Z,7.33
2018-05-10T20:28:29.783Z,7.27
2018-05-10T20:30:57.194Z,8.00
2018-05-10T20:33:24.650Z,9.00
2018-05-10T20:35:52.138Z,6.73
2018-05-10T20:38:19.594Z,8.57
2018-05-10T20:40:47.079Z,10.67
2018-05-10T20:43:14.632Z,7.63
2018-05-10T20:45:42.037Z,9.20
2018-05-10T20:48:09.498Z,7.70
2018-05-10T20:50:36.977Z,5.90
2018-05-10T20:53:04.458Z,5.93
2018-05-10T20:55:31.957Z,6.93
2018-05-10T20:57:59.413Z,7.37
2018-05-10T21:00:26.870Z,7.27
2018-05-10T21:02:54.354Z,7.17
2018-05-10T21:05:21.822Z,8.53
2018-05-10T21:07:49.303Z,6.73
2018-05-10T21:10:16.758Z,7.93
2018-05-10T21:12:44.247Z,8.20
2018-05-10T21:15:11.706Z,8.37
2018-05-10T21:17:39.192Z,8.00
2018-05-10T21:20:06.746Z,6.73
2018-05-10T21:22:34.166Z,7.50
2018-05-10T21:25:01.632Z,6.87
2018-05-10T21:27:29.112Z,6.33
2018-05-10T21:29:56.577Z,9.87
2018-05-10T21:32:24.058Z,10.60
2018-05-10T21:34:51.518Z,7.30
2018-05-10T21:37:19.005Z,8.10
2018-05-10T21:39:46.520Z,11.07
2018-05-10T21:42:14.010Z,7.00
2018-05-10T21:44:41.489Z,5.90
2018-05-10T21:47:08.978Z,7.60
2018-05-10T21:49:48.227Z,7.93
2018-05-10T21:52:15.779Z,8.23
2018-05-10T21:54:44.170Z,9.40
2018-05-10T21:57:11.650Z,9.57
2018-05-10T21:59:39.125Z,11.50
2018-05-10T22:02:06.610Z,10.97
2018-05-10T22:04:34.078Z,8.83
2018-05-10T22:07:01.575Z,10.43
2018-05-10T22:09:29.057Z,8.23
2018-05-10T22:11:56.530Z,6.73
2018-05-10T22:14:23.998Z,8.97
2018-05-10T22:16:51.477Z,10.23
2018-05-10T22:19:18.946Z,10.97
2018-05-10T22:21:46.425Z,9.53
2018-05-10T22:24:13.893Z,8.30
2018-05-10T22:26:41.353Z,9.43
2018-05-10T22:29:08.830Z,8.37
2018-05-10T22:31:36.290Z,10.07
2018-05-10T22:34:03.820Z,11.63
2018-05-10T22:36:31.282Z,9.97
2018-05-10T22:38:58.899Z,9.10
2018-05-10T22:41:26.370Z,9.47
2018-05-10T22:43:53.863Z,7.20
2018-05-10T22:49:19.380Z,14.93
2018-05-10T22:51:46.847Z,9.33
2018-05-10T22:54:14.334Z,12.10
2018-05-10T22:56:41.797Z,10.63
2018-05-10T22:59:09.275Z,11.47
2018-05-10T23:01:36.752Z,10.57
2018-05-10T23:04:04.243Z,11.90
2018-05-10T23:06:31.693Z,9.40
2018-05-10T23:08:59.174Z,9.60
2018-05-10T23:11:26.634Z,11.23
2018-05-10T23:13:54.118Z,12.73
2018-05-10T23:16:21.586Z,11.73
2018-05-10T23:18:49.076Z,13.93
2018-05-10T23:21:16.529Z,9.87
2018-05-10T23:23:44.010Z,9.03
2018-05-10T23:26:11.469Z,11.70
2018-05-10T23:28:38.946Z,9.23
2018-05-10T23:31:06.416Z,12.53
2018-05-10T23:33:33.905Z,12.07
2018-05-10T23:36:01.373Z,9.37
2018-05-10T23:38:28.853Z,13.10
2018-05-10T23:40:56.311Z,9.50
2018-05-10T23:43:23.793Z,12.27
2018-05-10T23:45:51.255Z,10.77
2018-05-10T23:48:27.259Z,12.53
2018-05-10T23:50:54.718Z,9.63
2018-05-10T23:53:22.203Z,11.27
2018-05-10T23:55:49.668Z,10.83
2018-05-10T23:58:17.174Z,12.60
